Time;durP1;ratioP1;P1;durP2;ratioP2;P2;SDS_P1;SDS_P2;PMS_P1;PMS_P2;Temp;Humidity;BMP_temperature;BMP_pressure;BME280_temperature;BME280_humidity;BME280_pressure;Samples;Min_cycle;Max_cycle;Signal;HPM_P1;HPM_P2
2023/10/31 00:02:20;;;;;;;6.13;1.10;;;;;;;11.95;98.75;99387.91;7363259;19;20081;-65
2023/10/31 00:04:46;;;;;;;6.05;1.20;;;;;;;11.92;98.91;99393.59;7355436;19;20023;-65
2023/10/31 00:07:14;;;;;;;4.63;0.90;;;;;;;11.93;99.47;99393.41;7360476;19;20014;-65
2023/10/31 00:09:40;;;;;;;7.30;1.27;;;;;;;11.91;99.40;99389.31;7358622;19;20017;-65
2023/10/31 00:12:08;;;;;;;2.13;0.93;;;;;;;11.90;99.55;99391.16;7358922;19;20022;-66
2023/10/31 00:14:35;;;;;;;5.18;0.85;;;;;;;11.91;99.40;99402.50;7390114;19;20022;-66
2023/10/31 00:17:06;;;;;;;6.82;2.05;;;;;;;11.88;99.23;99395.81;7382592;19;20447;-66
2023/10/31 00:19:34;;;;;;;8.38;1.67;;;;;;;11.90;99.56;99403.50;7357920;19;20014;-66
2023/10/31 00:22:01;;;;;;;10.00;1.20;;;;;;;11.92;99.96;99404.13;7356875;19;20018;-66
2023/10/31 00:24:28;;;;;;;7.15;0.73;;;;;;;11.91;100.00;99405.13;7358990;19;20010;-65
2023/10/31 00:27:03;;;;;;;5.53;0.90;;;;;;;11.92;100.00;99407.59;7349749;19;20019;-66
2023/10/31 00:29:30;;;;;;;6.25;1.00;;;;;;;11.94;100.00;99407.38;7385905;19;20691;-66
2023/10/31 00:31:57;;;;;;;6.28;1.10;;;;;;;11.92;99.86;99404.94;7386099;19;20021;-66
2023/10/31 00:34:24;;;;;;;6.15;1.35;;;;;;;11.88;99.92;99416.91;7359310;19;20009;-66
2023/10/31 00:36:51;;;;;;;3.22;0.80;;;;;;;11.87;99.67;99414.47;7359393;19;20014;-66
2023/10/31 00:39:18;;;;;;;5.38;1.10;;;;;;;11.84;99.97;99410.38;7359875;19;20019;-66
2023/10/31 00:41:46;;;;;;;3.78;1.00;;;;;;;11.84;99.92;99414.81;7361305;19;20642;-65
2023/10/31 00:44:13;;;;;;;5.38;1.00;;;;;;;11.80;99.85;99413.59;7359662;19;20022;-65
2023/10/31 00:46:40;;;;;;;4.68;1.15;;;;;;;11.78;100.00;99398.00;7360050;19;20139;-65
2023/10/31 00:49:07;;;;;;;5.25;1.23;;;;;;;11.79;100.00;99406.69;7355467;19;20025;-66
2023/10/31 00:51:34;;;;;;;3.85;1.20;;;;;;;11.78;100.00;99410.38;7357259;19;20556;-65
2023/10/31 00:54:01;;;;;;;4.57;1.35;;;;;;;11.77;100.00;99406.09;7358522;19;20456;-67
2023/10/31 00:56:28;;;;;;;3.38;1.20;;;;;;;11.76;100.00;99412.38;7351047;19;20025;-67
2023/10/31 00:58:55;;;;;;;6.70;1.13;;;;;;;11.74;100.00;99412.56;7358885;19;20024;-67
2023/10/31 01:01:22;;;;;;;2.85;0.90;;;;;;;11.71;100.00;99415.56;7360630;19;20417;-66
2023/10/31 01:03:49;;;;;;;5.07;1.60;;;;;;;11.73;100.00;99416.22;7358557;19;20611;-67
2023/10/31 01:06:16;;;;;;;7.18;1.55;;;;;;;11.73;100.00;99415.41;7359341;19;20348;-66
2023/10/31 01:08:43;;;;;;;6.32;1.20;;;;;;;11.70;100.00;99413.13;7360093;19;20023;-67
2023/10/31 01:11:10;;;;;;;6.22;1.48;;;;;;;11.70;100.00;99413.13;7356807;19;20028;-66
2023/10/31 01:13:37;;;;;;;3.85;1.02;;;;;;;11.66;100.00;99414.50;7357421;19;20021;-66
2023/10/31 01:16:04;;;;;;;6.88;1.70;;;;;;;11.63;100.00;99409.66;7357477;19;20344;-66
2023/10/31 01:18:31;;;;;;;4.80;1.08;;;;;;;11.68;100.00;99417.78;7358341;19;20073;-66
2023/10/31 01:20:58;;;;;;;4.85;1.05;;;;;;;11.67;100.00;99411.69;7354519;19;20025;-67
2023/10/31 01:23:25;;;;;;;5.05;1.13;;;;;;;11.63;100.00;99410.44;7358993;19;20014;-65
2023/10/31 01:25:52;;;;;;;8.68;1.92;;;;;;;11.61;100.00;99409.03;7357039;19;20865;-66
2023/10/31 01:28:19;;;;;;;3.67;1.13;;;;;;;11.58;100.00;99405.75;7355836;19;20014;-66
2023/10/31 01:30:46;;;;;;;6.03;1.50;;;;;;;11.60;100.00;99416.09;7361682;19;20010;-67
2023/10/31 01:33:13;;;;;;;9.50;1.55;;;;;;;11.61;100.00;99414.28;7358198;19;21960;-65
2023/10/31 01:35:40;;;;;;;6.03;1.27;;;;;;;11.57;100.00;99411.25;7357317;19;20019;-66
2023/10/31 01:38:07;;;;;;;6.25;1.23;;;;;;;11.57;100.00;99417.31;7357162;19;20029;-65
2023/10/31 01:40:34;;;;;;;5.50;1.10;;;;;;;11.57;100.00;99419.97;7358385;19;20014;-66
2023/10/31 01:43:01;;;;;;;7.97;1.30;;;;;;;11.58;100.00;99418.94;7357027;19;20010;-66
2023/10/31 01:45:28;;;;;;;5.28;1.52;;;;;;;11.59;100.00;99422.38;7359075;19;20019;-66
2023/10/31 01:47:56;;;;;;;6.75;1.20;;;;;;;11.60;100.00;99416.09;7356478;19;20018;-66
2023/10/31 01:50:23;;;;;;;5.80;1.50;;;;;;;11.63;100.00;99417.56;7355907;19;20035;-66
2023/10/31 01:52:50;;;;;;;6.15;1.67;;;;;;;11.59;100.00;99420.56;7358710;19;20582;-66
2023/10/31 01:55:18;;;;;;;6.80;1.55;;;;;;;11.59;100.00;99422.38;7356755;19;20467;-67
2023/10/31 01:57:47;;;;;;;6.85;1.77;;;;;;;11.55;100.00;99429.03;7351205;19;20010;-66
2023/10/31 02:00:14;;;;;;;7.38;2.00;;;;;;;11.58;100.00;99418.09;7357922;19;20017;-66
2023/10/31 02:02:44;;;;;;;4.22;1.33;;;;;;;11.56;100.00;99420.97;7356982;19;20018;-66
2023/10/31 02:05:11;;;;;;;5.68;1.55;;;;;;;11.53;100.00;99420.50;7356711;19;20522;-66
2023/10/31 02:07:38;;;;;;;7.35;1.50;;;;;;;11.49;100.00;99429.81;7356354;19;20418;-66
2023/10/31 02:10:06;;;;;;;12.52;1.38;;;;;;;11.45;100.00;99424.13;7352657;19;20027;-65
2023/10/31 02:12:35;;;;;;;2.95;1.10;;;;;;;11.44;100.00;99427.75;7350909;19;20186;-65
2023/10/31 02:15:03;;;;;;;5.60;1.88;;;;;;;11.46;100.00;99423.13;7353689;19;20433;-66
2023/10/31 02:17:30;;;;;;;5.40;1.35;;;;;;;11.48;100.00;99418.47;7356317;19;20113;-65
2023/10/31 02:19:57;;;;;;;7.13;1.20;;;;;;;11.47;100.00;99416.03;7353624;19;20329;-67
2023/10/31 02:22:24;;;;;;;5.00;1.58;;;;;;;11.48;100.00;99415.00;7357690;19;20074;-66
2023/10/31 02:24:51;;;;;;;6.28;1.40;;;;;;;11.48;100.00;99418.47;7356001;19;20641;-66
2023/10/31 02:27:21;;;;;;;5.60;1.30;;;;;;;11.49;100.00;99414.00;7356153;19;20025;-64
2023/10/31 02:29:48;;;;;;;6.55;1.67;;;;;;;11.45;100.00;99410.97;7354754;19;20010;-65
2023/10/31 02:32:15;;;;;;;7.80;1.50;;;;;;;11.45;100.00;99410.97;7357897;19;20570;-65
2023/10/31 02:34:45;;;;;;;4.13;1.48;;;;;;;11.41;100.00;99404.47;7353078;19;20134;-65
2023/10/31 02:37:12;;;;;;;8.38;1.48;;;;;;;11.38;100.00;99410.09;7355461;19;20017;-65
2023/10/31 02:39:40;;;;;;;7.28;1.77;;;;;;;11.38;100.00;99401.38;7353349;19;20018;-66
2023/10/31 02:42:07;;;;;;;6.40;2.20;;;;;;;11.39;100.00;99413.53;7357234;19;20021;-66
2023/10/31 02:44:34;;;;;;;10.07;2.25;;;;;;;11.39;100.00;99409.09;7353424;19;20021;-66
2023/10/31 02:47:01;;;;;;;7.47;1.88;;;;;;;11.39;100.00;99417.00;7357375;19;20021;-67
2023/10/31 02:49:28;;;;;;;3.90;1.73;;;;;;;11.39;100.00;99411.72;7348253;19;20019;-66
2023/10/31 02:51:55;;;;;;;5.43;1.45;;;;;;;11.37;100.00;99410.31;7356339;19;20017;-66
2023/10/31 02:54:22;;;;;;;6.05;2.30;;;;;;;11.30;100.00;99412.88;7355873;19;20010;-66
2023/10/31 02:56:49;;;;;;;5.88;1.95;;;;;;;11.27;100.00;99415.09;7355022;19;20018;-66
2023/10/31 02:59:16;;;;;;;7.65;2.35;;;;;;;11.30;100.00;99420.78;7352681;19;20011;-66
2023/10/31 03:01:43;;;;;;;8.05;2.03;;;;;;;11.34;100.00;99410.66;7358297;19;20510;-66
2023/10/31 03:04:10;;;;;;;6.90;1.88;;;;;;;11.33;100.00;99411.66;7348525;19;20034;-66
2023/10/31 03:06:37;;;;;;;6.30;2.72;;;;;;;11.33;100.00;99420.38;7354136;19;20025;-66
2023/10/31 03:09:04;;;;;;;8.90;2.13;;;;;;;11.32;100.00;99424.06;7352966;19;20025;-66
2023/10/31 03:11:32;;;;;;;8.40;2.00;;;;;;;11.31;100.00;99416.34;7357162;19;20417;-66
2023/10/31 03:13:59;;;;;;;5.68;1.95;;;;;;;11.31;100.00;99419.78;7351410;19;20684;-65
2023/10/31 03:16:26;;;;;;;5.28;1.98;;;;;;;11.32;100.00;99425.88;7356259;19;20022;-67
2023/10/31 03:18:54;;;;;;;5.63;2.42;;;;;;;11.33;100.00;99420.38;7366415;19;20014;-66
2023/10/31 03:21:20;;;;;;;7.95;2.10;;;;;;;11.36;100.00;99419.22;7395183;19;20010;-65
2023/10/31 03:23:49;;;;;;;8.93;2.63;;;;;;;11.35;100.00;99423.66;7375768;19;20045;-65
2023/10/31 03:26:17;;;;;;;9.80;2.28;;;;;;;11.37;100.00;99418.22;7367117;19;20014;-66
2023/10/31 03:28:44;;;;;;;6.70;2.13;;;;;;;11.40;100.00;99415.19;7366649;19;20049;-66
2023/10/31 03:31:12;;;;;;;6.53;2.03;;;;;;;11.42;100.00;99415.81;7367079;19;20044;-65
2023/10/31 03:33:40;;;;;;;5.60;2.05;;;;;;;11.46;100.00;99419.69;7367137;19;20014;-66
2023/10/31 03:36:08;;;;;;;5.00;2.10;;;;;;;11.47;100.00;99418.69;7370236;19;20498;-66
2023/10/31 03:38:35;;;;;;;4.45;1.35;;;;;;;11.50;100.00;99423.53;7369752;19;20010;-65
2023/10/31 03:41:03;;;;;;;6.75;1.45;;;;;;;11.49;100.00;99427.19;7368656;19;20034;-65
2023/10/31 03:43:31;;;;;;;4.93;1.90;;;;;;;11.50;100.00;99421.72;7369655;19;20026;-65
2023/10/31 03:45:58;;;;;;;10.13;2.20;;;;;;;11.53;100.00;99425.78;7370101;19;20007;-65
2023/10/31 03:48:25;;;;;;;8.40;2.10;;;;;;;11.53;100.00;99418.69;7369351;19;20022;-64
2023/10/31 03:50:53;;;;;;;3.35;1.63;;;;;;;11.54;100.00;99422.97;7367639;19;20227;-64
2023/10/31 03:53:20;;;;;;;8.60;1.75;;;;;;;11.56;100.00;99423.59;7369212;19;20049;-63
2023/10/31 03:55:47;;;;;;;4.65;1.95;;;;;;;11.57;100.00;99425.22;7367358;19;20137;-65
2023/10/31 03:58:14;;;;;;;4.97;1.67;;;;;;;11.55;100.00;99424.59;7364767;19;20026;-64
2023/10/31 04:00:41;;;;;;;7.30;2.05;;;;;;;11.58;100.00;99433.91;7363850;19;20022;-63
2023/10/31 04:03:08;;;;;;;7.45;1.70;;;;;;;11.55;100.00;99429.03;7367261;19;20086;-64
2023/10/31 04:05:35;;;;;;;5.28;1.98;;;;;;;11.56;100.00;99425.41;7367235;19;20082;-65
2023/10/31 04:08:02;;;;;;;6.10;2.20;;;;;;;11.59;100.00;99431.09;7367501;19;20010;-64
2023/10/31 04:10:30;;;;;;;7.57;2.65;;;;;;;11.63;100.00;99436.00;7367000;19;20010;-64
2023/10/31 04:12:57;;;;;;;4.07;2.00;;;;;;;11.68;100.00;99433.59;7366460;19;20368;-64
2023/10/31 04:15:23;;;;;;;5.05;2.35;;;;;;;11.71;100.00;99435.81;7363834;19;20038;-64
2023/10/31 04:17:50;;;;;;;6.97;2.25;;;;;;;11.70;100.00;99437.66;7369467;19;20557;-65
2023/10/31 04:20:17;;;;;;;6.05;1.92;;;;;;;11.69;100.00;99438.66;7360941;19;20018;-65
2023/10/31 04:22:44;;;;;;;6.55;2.05;;;;;;;11.72;100.00;99437.47;7368833;19;20019;-64
2023/10/31 04:25:11;;;;;;;6.47;2.22;;;;;;;11.75;100.00;99447.63;7364901;19;20937;-65
2023/10/31 04:27:38;;;;;;;6.28;2.33;;;;;;;11.78;100.00;99448.06;7367011;19;20231;-65
2023/10/31 04:30:06;;;;;;;12.45;3.40;;;;;;;11.76;100.00;99446.63;7367563;19;20496;-64
2023/10/31 04:32:33;;;;;;;11.68;2.80;;;;;;;11.76;100.00;99447.44;7357635;19;20311;-64
2023/10/31 04:35:00;;;;;;;9.23;2.42;;;;;;;11.79;100.00;99441.78;7358411;19;20043;-65
2023/10/31 04:37:27;;;;;;;4.18;2.03;;;;;;;11.81;100.00;99444.22;7361644;19;20039;-65
2023/10/31 04:39:56;;;;;;;6.85;2.30;;;;;;;11.80;100.00;99448.69;7360429;19;20087;-65
2023/10/31 04:42:23;;;;;;;8.23;2.65;;;;;;;11.81;100.00;99449.50;7360353;19;20015;-65
2023/10/31 04:44:50;;;;;;;6.80;2.38;;;;;;;11.83;100.00;99453.56;7357674;19;20028;-65
2023/10/31 04:47:17;;;;;;;7.20;3.10;;;;;;;11.83;100.00;99452.75;7363481;19;20016;-64
2023/10/31 04:49:44;;;;;;;6.15;2.38;;;;;;;11.82;100.00;99459.84;7356591;19;21129;-64
2023/10/31 04:52:12;;;;;;;8.07;2.45;;;;;;;11.82;100.00;99464.31;7361163;19;20024;-65
2023/10/31 04:54:40;;;;;;;8.23;2.50;;;;;;;11.80;100.00;99464.50;7359150;19;20404;-65
2023/10/31 04:57:07;;;;;;;7.78;2.97;;;;;;;11.81;100.00;99465.31;7360568;19;20518;-64
2023/10/31 04:59:34;;;;;;;7.72;2.45;;;;;;;11.80;100.00;99475.03;7354716;19;20549;-64
2023/10/31 05:02:00;;;;;;;7.30;2.50;;;;;;;11.81;100.00;99465.31;7356583;19;20082;-65
2023/10/31 05:04:28;;;;;;;7.70;2.38;;;;;;;11.83;100.00;99466.75;7357252;19;20685;-63
2023/10/31 05:06:56;;;;;;;7.13;2.75;;;;;;;11.85;100.00;99466.53;7360783;19;20025;-65
2023/10/31 05:09:23;;;;;;;7.00;2.78;;;;;;;11.84;100.00;99467.53;7355225;19;20007;-66
2023/10/31 05:11:50;;;;;;;8.20;3.28;;;;;;;11.82;100.00;99466.94;7360089;19;20010;-64
2023/10/31 05:14:17;;;;;;;8.35;2.78;;;;;;;11.79;100.00;99468.13;7358056;19;20020;-65
2023/10/31 05:16:44;;;;;;;9.32;2.85;;;;;;;11.82;100.00;99467.75;7355091;19;20018;-64
2023/10/31 05:19:12;;;;;;;8.95;3.00;;;;;;;11.87;100.00;99460.06;7358152;19;20026;-65
2023/10/31 05:21:39;;;;;;;7.78;2.42;;;;;;;11.90;100.00;99472.03;7358042;19;20035;-65
2023/10/31 05:24:07;;;;;;;5.72;2.25;;;;;;;11.91;100.00;99465.75;7357920;19;20072;-65
2023/10/31 05:26:34;;;;;;;3.45;1.60;;;;;;;11.94;100.00;99468.00;7356335;19;20019;-64
2023/10/31 05:29:00;;;;;;;7.82;2.08;;;;;;;11.99;100.00;99476.13;7356523;19;20818;-64
2023/10/31 05:31:27;;;;;;;7.20;2.33;;;;;;;12.00;100.00;99475.94;7358865;19;20015;-64
2023/10/31 05:33:54;;;;;;;7.78;1.52;;;;;;;12.02;100.00;99478.41;7355856;19;21388;-64
2023/10/31 05:36:24;;;;;;;5.07;1.42;;;;;;;12.04;100.00;99478.22;7358745;19;20052;-65
2023/10/31 05:38:51;;;;;;;7.75;1.90;;;;;;;12.04;100.00;99473.72;7358212;19;20010;-63
2023/10/31 05:41:18;;;;;;;5.57;1.90;;;;;;;12.05;100.00;99474.53;7357735;19;20023;-64
2023/10/31 05:43:45;;;;;;;5.57;1.70;;;;;;;12.07;100.00;99477.81;7357575;19;20527;-64
2023/10/31 05:46:15;;;;;;;8.07;1.85;;;;;;;12.08;100.00;99476.81;7359844;19;20014;-64
2023/10/31 05:48:44;;;;;;;6.13;1.67;;;;;;;12.09;100.00;99479.22;7351631;19;20010;-64
2023/10/31 05:51:18;;;;;;;6.30;1.67;;;;;;;12.10;100.00;99480.03;7358343;19;20081;-65
2023/10/31 05:53:48;;;;;;;6.88;1.58;;;;;;;12.10;100.00;99475.59;7359281;19;20074;-65
2023/10/31 05:56:16;;;;;;;5.80;1.38;;;;;;;12.10;100.00;99480.84;7354923;19;20026;-63
2023/10/31 05:58:43;;;;;;;5.40;1.30;;;;;;;12.11;100.00;99482.50;7356391;19;20010;-64
2023/10/31 06:01:10;;;;;;;4.65;1.27;;;;;;;12.13;100.00;99484.94;7354685;19;20722;-64
2023/10/31 06:03:42;;;;;;;6.20;1.98;;;;;;;12.12;100.00;99485.94;7350542;19;21009;-65
2023/10/31 06:06:09;;;;;;;5.03;1.67;;;;;;;12.11;100.00;99484.31;7358469;19;20707;-64
2023/10/31 06:08:36;;;;;;;7.18;1.50;;;;;;;12.12;100.00;99488.56;7355820;19;20152;-64
2023/10/31 06:11:04;;;;;;;4.32;1.40;;;;;;;12.11;100.00;99484.31;7357074;19;20014;-64
2023/10/31 06:13:31;;;;;;;7.90;1.35;;;;;;;12.12;100.00;99484.13;7357736;19;20014;-65
2023/10/31 06:15:58;;;;;;;5.78;1.30;;;;;;;12.14;100.00;99495.28;7355199;19;20011;-65
2023/10/31 06:18:28;;;;;;;7.68;1.45;;;;;;;12.13;100.00;99488.38;7350868;19;20296;-67
2023/10/31 06:20:55;;;;;;;3.63;1.20;;;;;;;12.11;100.00;99484.31;7354295;19;20035;-65
2023/10/31 06:23:22;;;;;;;3.40;1.00;;;;;;;12.09;100.00;99487.13;7354436;19;20018;-64
2023/10/31 06:25:49;;;;;;;2.40;0.90;;;;;;;12.06;100.00;99482.25;7357652;19;20364;-64
2023/10/31 06:28:16;;;;;;;7.32;1.10;;;;;;;12.10;100.00;99486.13;7352526;19;20025;-64
2023/10/31 06:30:43;;;;;;;5.93;0.90;;;;;;;12.12;100.00;99488.56;7355744;19;20033;-68
2023/10/31 06:33:11;;;;;;;5.43;1.00;;;;;;;12.12;100.00;99488.56;7353730;19;21115;-65
2023/10/31 06:35:39;;;;;;;3.97;0.90;;;;;;;12.11;100.00;99485.13;7354327;19;20021;-64
2023/10/31 06:38:06;;;;;;;3.95;1.13;;;;;;;12.09;100.00;99487.13;7356190;19;20089;-65
2023/10/31 06:40:33;;;;;;;4.57;1.10;;;;;;;12.05;100.00;99488.53;7354278;19;20018;-64
2023/10/31 06:43:01;;;;;;;4.97;0.70;;;;;;;12.04;100.00;99492.19;7355711;19;20018;-64
2023/10/31 06:45:28;;;;;;;5.18;0.70;;;;;;;12.04;100.00;99492.19;7357710;19;20113;-64
2023/10/31 06:48:17;;;;;;;4.22;1.20;;;;;;;11.99;100.00;99498.03;7372861;19;20037;-64
2023/10/31 06:50:56;;;;;;;3.22;1.15;;;;;;;11.99;100.00;99499.84;7376847;19;20019;-65
2023/10/31 06:53:23;;;;;;;4.15;0.93;;;;;;;11.96;100.00;99503.72;7356405;19;20086;-64
2023/10/31 06:55:50;;;;;;;7.53;0.90;;;;;;;11.99;100.00;99513.03;7354821;19;20025;-65
2023/10/31 06:58:21;;;;;;;4.78;1.30;;;;;;;12.03;100.00;99513.47;7353956;19;20047;-64
2023/10/31 07:00:48;;;;;;;8.60;1.10;;;;;;;12.06;100.00;99521.00;7352343;19;20080;-65
2023/10/31 07:03:20;;;;;;;6.20;1.13;;;;;;;12.06;100.00;99518.34;7350835;19;20306;-64
2023/10/31 07:05:47;;;;;;;6.68;1.08;;;;;;;12.04;100.00;99515.13;7352249;19;20022;-65
2023/10/31 07:08:14;;;;;;;5.70;1.30;;;;;;;12.02;100.00;99515.31;7353988;19;20018;-65
2023/10/31 07:10:44;;;;;;;3.65;1.08;;;;;;;12.04;100.00;99525.66;7355344;19;20018;-65
2023/10/31 07:13:11;;;;;;;6.47;1.83;;;;;;;12.05;100.00;99525.44;7352495;19;20033;-65
2023/10/31 07:15:39;;;;;;;4.35;0.73;;;;;;;12.06;100.00;99531.53;7355485;19;20387;-64
2023/10/31 07:18:09;;;;;;;4.13;0.95;;;;;;;12.06;100.00;99529.72;7350811;19;21106;-65
2023/10/31 07:20:36;;;;;;;4.20;0.90;;;;;;;12.07;100.00;99520.81;7353488;19;20034;-65
2023/10/31 07:23:03;;;;;;;7.05;0.80;;;;;;;12.10;100.00;99535.41;7368643;19;20789;-64
2023/10/31 07:25:30;;;;;;;7.50;1.08;;;;;;;12.12;100.00;99543.94;7379391;19;20022;-65
2023/10/31 07:28:07;;;;;;;6.93;0.85;;;;;;;12.13;100.00;99548.22;7358009;19;20046;-65
2023/10/31 07:30:34;;;;;;;7.55;1.25;;;;;;;12.14;100.00;99545.38;7353001;19;20015;-65
2023/10/31 07:33:01;;;;;;;5.93;1.50;;;;;;;12.19;100.00;99558.00;7351372;19;20034;-65
2023/10/31 07:35:28;;;;;;;4.65;1.10;;;;;;;12.20;100.00;99559.59;7351608;19;20026;-65
2023/10/31 07:37:55;;;;;;;6.40;1.20;;;;;;;12.21;100.00;99561.22;7353082;19;20276;-66
2023/10/31 07:40:22;;;;;;;6.68;1.30;;;;;;;12.22;100.00;99568.16;7351126;19;20043;-65
2023/10/31 07:42:49;;;;;;;7.78;1.92;;;;;;;12.24;100.00;99572.19;7351788;19;20006;-65
2023/10/31 07:45:16;;;;;;;6.35;1.58;;;;;;;12.30;100.00;99571.44;7350276;19;20025;-66
2023/10/31 07:47:43;;;;;;;5.72;1.20;;;;;;;12.34;100.00;99574.50;7354151;19;20081;-65
2023/10/31 07:50:10;;;;;;;5.32;0.93;;;;;;;12.37;100.00;99582.84;7346562;19;20043;-66
2023/10/31 07:52:37;;;;;;;6.65;1.50;;;;;;;12.37;100.00;99593.38;7354009;19;20018;-65
2023/10/31 07:55:04;;;;;;;6.90;1.50;;;;;;;12.39;100.00;99583.44;7351571;19;20040;-65
2023/10/31 07:57:32;;;;;;;7.10;2.35;;;;;;;12.46;100.00;99587.94;7351125;19;20010;-65
2023/10/31 07:59:59;;;;;;;6.07;1.70;;;;;;;12.49;100.00;99585.75;7351066;19;20033;-65
2023/10/31 08:02:25;;;;;;;7.75;1.73;;;;;;;12.52;100.00;99581.88;7349491;19;20090;-65
2023/10/31 08:04:53;;;;;;;9.70;1.70;;;;;;;12.56;100.00;99580.47;7349088;19;20045;-64
2023/10/31 08:07:20;;;;;;;6.70;2.08;;;;;;;12.60;100.00;99587.78;7355635;19;20574;-66
2023/10/31 08:09:47;;;;;;;14.63;2.03;;;;;;;12.70;100.00;99584.78;7358368;19;20038;-66
2023/10/31 08:12:14;;;;;;;8.50;1.73;;;;;;;12.98;100.00;99590.78;7357151;19;20033;-66
2023/10/31 08:14:41;;;;;;;10.70;1.95;;;;;;;13.13;100.00;99586.19;7357807;19;20018;-65
2023/10/31 08:17:09;;;;;;;16.02;2.67;;;;;;;13.06;100.00;99585.31;7356724;19;20020;-65
2023/10/31 08:19:36;;;;;;;6.82;1.80;;;;;;;13.05;100.00;99580.25;7352191;19;20037;-66
2023/10/31 08:22:03;;;;;;;4.35;1.65;;;;;;;13.06;100.00;99587.97;7360009;19;20090;-67
2023/10/31 08:24:30;;;;;;;8.15;1.83;;;;;;;13.03;100.00;99587.56;7359448;19;20018;-65
2023/10/31 08:26:58;;;;;;;5.30;1.95;;;;;;;13.01;100.00;99590.38;7358260;19;20018;-66
2023/10/31 08:29:25;;;;;;;7.60;2.25;;;;;;;13.05;100.00;99586.34;7354605;19;20022;-64
2023/10/31 08:31:52;;;;;;;7.88;1.55;;;;;;;13.03;100.00;99587.56;7360767;19;20379;-64
2023/10/31 08:34:19;;;;;;;5.13;1.05;;;;;;;13.01;100.00;99586.91;7356040;19;20026;-64
2023/10/31 08:36:46;;;;;;;7.20;1.50;;;;;;;13.02;100.00;99585.91;7353483;19;20008;-65
2023/10/31 08:39:13;;;;;;;4.68;1.25;;;;;;;13.00;100.00;99588.78;7359253;19;20175;-65
2023/10/31 08:41:54;;;;;;;5.80;1.52;;;;;;;13.02;100.00;99583.28;7357585;19;20351;-66
2023/10/31 08:44:22;;;;;;;4.28;1.25;;;;;;;12.97;100.00;99585.69;7359188;19;20015;-65
2023/10/31 08:46:49;;;;;;;4.70;1.17;;;;;;;12.97;100.00;99583.06;7357586;19;20007;-65
2023/10/31 08:49:17;;;;;;;7.60;1.70;;;;;;;12.98;100.00;99582.88;7354644;19;20014;-66
2023/10/31 08:51:44;;;;;;;10.18;1.60;;;;;;;12.98;100.00;99588.16;7361811;19;20306;-65
2023/10/31 08:54:11;;;;;;;7.55;1.52;;;;;;;13.01;100.00;99586.91;7356236;19;20088;-66
2023/10/31 08:56:38;;;;;;;6.75;1.75;;;;;;;12.99;100.00;99589.78;7358232;19;20110;-64
2023/10/31 08:59:05;;;;;;;5.38;1.85;;;;;;;13.08;100.00;99582.47;7358092;19;20809;-65
2023/10/31 09:01:33;;;;;;;5.60;2.08;;;;;;;13.08;100.00;99585.13;7362176;19;20799;-65
2023/10/31 09:04:00;;;;;;;6.43;2.03;;;;;;;13.13;100.00;99582.72;7346727;19;20286;-65
2023/10/31 09:06:28;;;;;;;10.13;2.50;;;;;;;13.20;100.00;99599.41;7360492;19;20002;-65
2023/10/31 09:08:55;;;;;;;10.00;1.50;;;;;;;13.27;100.00;99595.75;7356599;19;20082;-66
2023/10/31 09:11:22;;;;;;;10.68;1.73;;;;;;;13.32;100.00;99604.91;7359128;19;20007;-65
2023/10/31 09:13:49;;;;;;;6.82;1.40;;;;;;;13.37;100.00;99610.41;7358017;19;20014;-65
2023/10/31 09:16:16;;;;;;;5.38;1.45;;;;;;;13.42;100.00;99606.13;7357248;19;20022;-65
2023/10/31 09:18:43;;;;;;;4.68;1.30;;;;;;;13.50;100.00;99616.53;7350867;19;20448;-67
2023/10/31 09:21:10;;;;;;;3.08;1.20;;;;;;;13.60;100.00;99611.66;7352320;19;20012;-65
2023/10/31 09:23:40;;;;;;;5.43;1.02;;;;;;;13.63;100.00;99610.44;7355007;19;20403;-65
2023/10/31 09:26:07;;;;;;;6.43;1.10;;;;;;;13.65;100.00;99611.88;7356403;19;20018;-64
2023/10/31 09:28:36;;;;;;;5.70;1.00;;;;;;;13.65;100.00;99614.50;7357990;19;20022;-64
2023/10/31 09:31:03;;;;;;;5.30;1.17;;;;;;;13.75;100.00;99621.22;7356295;19;20356;-65
2023/10/31 09:33:30;;;;;;;3.15;1.15;;;;;;;13.82;100.00;99632.59;7358550;19;20011;-65
2023/10/31 09:35:57;;;;;;;4.35;1.05;;;;;;;13.85;99.49;99638.31;7352227;19;20650;-65
2023/10/31 09:38:24;;;;;;;3.92;1.08;;;;;;;13.88;99.53;99640.53;7359171;19;20781;-64
2023/10/31 09:40:51;;;;;;;4.07;1.58;;;;;;;13.91;99.28;99637.50;7358120;19;20473;-65
2023/10/31 09:43:20;;;;;;;5.80;0.95;;;;;;;13.86;98.93;99634.66;7357031;19;20602;-65
2023/10/31 09:45:47;;;;;;;7.45;1.23;;;;;;;13.86;98.97;99637.31;7355507;19;20014;-66
2023/10/31 09:48:14;;;;;;;4.38;1.13;;;;;;;13.88;99.32;99634.44;7349710;19;20726;-65
2023/10/31 09:50:41;;;;;;;6.32;1.45;;;;;;;13.88;99.69;99627.31;7353216;19;20094;-65
2023/10/31 09:53:09;;;;;;;6.13;1.13;;;;;;;13.91;99.57;99634.84;7357119;19;20043;-65
2023/10/31 09:55:37;;;;;;;5.65;1.52;;;;;;;13.97;100.00;99634.03;7354501;19;20029;-65
2023/10/31 09:58:12;;;;;;;5.53;1.42;;;;;;;14.04;99.76;99639.31;7357467;19;20015;-65
2023/10/31 10:00:40;;;;;;;4.53;1.33;;;;;;;14.04;99.64;99637.47;7354992;19;20013;-65
2023/10/31 10:03:10;;;;;;;3.63;2.10;;;;;;;14.09;99.74;99639.50;7353206;19;20018;-65
2023/10/31 10:05:40;;;;;;;7.65;2.58;;;;;;;14.12;99.44;99636.44;7352129;19;20006;-65
2023/10/31 10:08:14;;;;;;;9.02;1.00;;;;;;;14.18;99.65;99635.63;7355358;19;20566;-65
2023/10/31 10:10:41;;;;;;;7.40;1.55;;;;;;;14.17;99.46;99634.00;7356248;19;20359;-65
2023/10/31 10:13:09;;;;;;;7.72;1.35;;;;;;;14.23;99.52;99627.88;7357103;19;20014;-65
2023/10/31 10:15:53;;;;;;;9.50;1.35;;;;;;;14.31;99.69;99632.16;7357470;19;20502;-67
2023/10/31 10:18:30;;;;;;;10.10;0.73;;;;;;;14.36;99.27;99641.16;7356818;19;20014;-65
2023/10/31 10:21:02;;;;;;;4.13;0.60;;;;;;;14.40;99.28;99639.72;7346721;19;20010;-66
2023/10/31 10:23:30;;;;;;;6.68;1.15;;;;;;;14.45;99.15;99641.72;7353611;19;20018;-65
2023/10/31 10:26:03;;;;;;;5.55;0.73;;;;;;;14.49;98.98;99638.47;7353284;19;20059;-65
2023/10/31 10:28:30;;;;;;;6.38;0.70;;;;;;;14.52;98.80;99643.34;7354182;19;20022;-64
2023/10/31 10:31:00;;;;;;;3.08;0.82;;;;;;;14.55;98.45;99642.94;7352478;19;20015;-64
2023/10/31 10:33:27;;;;;;;5.38;0.85;;;;;;;14.62;97.40;99639.47;7352453;19;20085;-65
2023/10/31 10:35:55;;;;;;;5.10;0.93;;;;;;;14.66;97.95;99638.00;7355468;19;20015;-65
2023/10/31 10:38:23;;;;;;;7.60;0.70;;;;;;;14.65;97.82;99641.69;7354398;19;20086;-65
2023/10/31 10:40:53;;;;;;;3.38;0.65;;;;;;;14.67;97.62;99647.59;7354899;19;20014;-64
2023/10/31 10:43:24;;;;;;;7.78;0.70;;;;;;;14.67;97.45;99650.22;7352887;19;20042;-65
2023/10/31 10:45:56;;;;;;;2.07;0.57;;;;;;;14.72;97.17;99642.47;7357279;19;20022;-65
2023/10/31 10:48:28;;;;;;;6.47;1.20;;;;;;;14.73;96.93;99652.06;7358292;19;20020;-65
2023/10/31 10:51:23;;;;;;;4.22;0.82;;;;;;;14.75;96.88;99652.63;7354551;19;20010;-65
2023/10/31 10:54:27;;;;;;;4.05;0.73;;;;;;;14.77;96.63;99651.44;7349817;19;20685;-64
2023/10/31 10:56:59;;;;;;;5.43;1.33;;;;;;;14.73;96.22;99647.53;7354637;19;20014;-65
2023/10/31 10:59:50;;;;;;;6.30;0.75;;;;;;;14.75;96.60;99647.34;7352231;19;20102;-66
2023/10/31 11:02:18;;;;;;;8.05;1.10;;;;;;;14.76;96.35;99649.78;7354336;19;20372;-66
2023/10/31 11:04:47;;;;;;;4.22;0.90;;;;;;;14.79;96.98;99656.50;7340474;19;20521;-66
2023/10/31 11:07:16;;;;;;;3.58;0.90;;;;;;;14.82;97.31;99654.25;7350918;19;20739;-64
2023/10/31 11:09:46;;;;;;;4.68;0.85;;;;;;;14.85;97.23;99653.00;7354178;19;20684;-64
2023/10/31 11:12:15;;;;;;;5.57;0.70;;;;;;;14.84;96.82;99651.38;7354373;19;20511;-65
2023/10/31 11:14:43;;;;;;;4.68;0.80;;;;;;;14.93;96.65;99650.94;7354085;19;20014;-66
2023/10/31 11:17:21;;;;;;;6.43;0.70;;;;;;;14.97;96.00;99651.34;7355463;19;20018;-64
2023/10/31 11:19:50;;;;;;;5.72;0.55;;;;;;;15.08;95.73;99648.03;7351177;19;20021;-64
2023/10/31 11:22:18;;;;;;;6.28;0.70;;;;;;;15.18;95.78;99648.41;7350758;19;20303;-64
2023/10/31 11:24:49;;;;;;;4.70;0.60;;;;;;;15.28;95.14;99647.94;7352128;19;20011;-65
2023/10/31 11:27:17;;;;;;;5.03;0.50;;;;;;;15.38;94.39;99657.06;7349772;19;20556;-66
2023/10/31 11:29:45;;;;;;;4.00;0.40;;;;;;;15.44;93.39;99651.94;7354335;19;21589;-64
2023/10/31 11:32:12;;;;;;;5.25;0.38;;;;;;;15.46;92.77;99669.22;7351564;19;20018;-64